sensor_id;sensor_type;location;lat;lon;timestamp;pressure;altitude;pressure_sealevel;temperature;humidity
80693;BME280;70055;39.436;-77.514;2024-03-06T00:00:38;99580.15;;;13.02;51.14
80693;BME280;70055;39.436;-77.514;2024-03-06T00:03:06;99575.88;;;13.06;50.81
80693;BME280;70055;39.436;-77.514;2024-03-06T00:05:34;99579.15;;;13.15;50.70
80693;BME280;70055;39.436;-77.514;2024-03-06T00:08:05;99583.28;;;13.37;50.82
80693;BME280;70055;39.436;-77.514;2024-03-06T00:10:33;99584.30;;;13.65;50.39
80693;BME280;70055;39.436;-77.514;2024-03-06T00:13:03;99586.20;;;13.10;51.21
80693;BME280;70055;39.436;-77.514;2024-03-06T00:15:31;99582.40;;;12.38;53.35
80693;BME280;70055;39.436;-77.514;2024-03-06T00:18:00;99573.15;;;11.01;56.15
80693;BME280;70055;39.436;-77.514;2024-03-06T00:20:29;99558.69;;;10.93;57.41
80693;BME280;70055;39.436;-77.514;2024-03-06T00:22:59;99546.88;;;10.89;57.43
80693;BME280;70055;39.436;-77.514;2024-03-06T00:25:29;99537.74;;;11.67;56.62
80693;BME280;70055;39.436;-77.514;2024-03-06T00:27:57;99534.51;;;10.43;59.30
80693;BME280;70055;39.436;-77.514;2024-03-06T00:30:26;99535.50;;;10.24;60.17
80693;BME280;70055;39.436;-77.514;2024-03-06T00:32:54;99541.48;;;8.65;64.36
80693;BME280;70055;39.436;-77.514;2024-03-06T00:35:23;99537.80;;;8.99;64.63
80693;BME280;70055;39.436;-77.514;2024-03-06T00:37:52;99534.94;;;9.70;64.19
80693;BME280;70055;39.436;-77.514;2024-03-06T00:40:21;99539.07;;;10.13;62.48
80693;BME280;70055;39.436;-77.514;2024-03-06T00:42:49;99524.81;;;10.69;60.48
80693;BME280;70055;39.436;-77.514;2024-03-06T00:45:20;99527.24;;;8.43;65.77
80693;BME280;70055;39.436;-77.514;2024-03-06T00:47:48;99529.18;;;10.08;62.35
80693;BME280;70055;39.436;-77.514;2024-03-06T00:50:18;99514.11;;;10.02;61.59
80693;BME280;70055;39.436;-77.514;2024-03-06T00:52:47;99514.91;;;9.30;64.76
80693;BME280;70055;39.436;-77.514;2024-03-06T00:55:17;99528.66;;;9.11;65.88
80693;BME280;70055;39.436;-77.514;2024-03-06T00:57:45;99535.23;;;9.63;63.07
80693;BME280;70055;39.436;-77.514;2024-03-06T01:00:15;99532.40;;;10.72;59.76
80693;BME280;70055;39.436;-77.514;2024-03-06T01:02:43;99534.87;;;10.87;59.44
80693;BME280;70055;39.436;-77.514;2024-03-06T01:05:11;99543.64;;;9.31;65.34
80693;BME280;70055;39.436;-77.514;2024-03-06T01:07:40;99540.68;;;10.76;59.73
80693;BME280;70055;39.436;-77.514;2024-03-06T01:10:10;99548.08;;;9.87;61.79
80693;BME280;70055;39.436;-77.514;2024-03-06T01:12:39;99549.26;;;10.50;60.48
80693;BME280;70055;39.436;-77.514;2024-03-06T01:15:09;99544.77;;;10.96;59.30
80693;BME280;70055;39.436;-77.514;2024-03-06T01:17:38;99540.20;;;11.22;58.81
80693;BME280;70055;39.436;-77.514;2024-03-06T01:20:09;99537.04;;;10.59;59.77
80693;BME280;70055;39.436;-77.514;2024-03-06T01:22:40;99542.33;;;10.14;61.38
80693;BME280;70055;39.436;-77.514;2024-03-06T01:25:08;99542.02;;;11.28;58.31
80693;BME280;70055;39.436;-77.514;2024-03-06T01:27:36;99549.69;;;11.34;57.72
80693;BME280;70055;39.436;-77.514;2024-03-06T01:30:10;99549.04;;;10.04;59.99
80693;BME280;70055;39.436;-77.514;2024-03-06T01:32:39;99556.81;;;10.43;60.75
80693;BME280;70055;39.436;-77.514;2024-03-06T01:35:11;99558.27;;;10.83;59.08
80693;BME280;70055;39.436;-77.514;2024-03-06T01:37:43;99559.19;;;11.08;57.36
80693;BME280;70055;39.436;-77.514;2024-03-06T01:40:15;99569.41;;;11.00;58.61
80693;BME280;70055;39.436;-77.514;2024-03-06T01:42:43;99577.82;;;10.61;59.52
80693;BME280;70055;39.436;-77.514;2024-03-06T01:45:11;99586.48;;;10.33;61.08
80693;BME280;70055;39.436;-77.514;2024-03-06T01:47:41;99585.15;;;10.34;60.76
80693;BME280;70055;39.436;-77.514;2024-03-06T01:50:12;99576.48;;;11.01;58.92
80693;BME280;70055;39.436;-77.514;2024-03-06T01:52:42;99579.10;;;10.33;59.85
80693;BME280;70055;39.436;-77.514;2024-03-06T01:55:12;99577.98;;;11.03;58.26
80693;BME280;70055;39.436;-77.514;2024-03-06T01:57:42;99582.44;;;11.72;55.41
80693;BME280;70055;39.436;-77.514;2024-03-06T02:00:12;99584.09;;;12.43;54.06
80693;BME280;70055;39.436;-77.514;2024-03-06T02:02:42;99589.61;;;11.62;56.33
80693;BME280;70055;39.436;-77.514;2024-03-06T02:05:11;99589.95;;;10.31;59.08
80693;BME280;70055;39.436;-77.514;2024-03-06T02:07:40;99583.20;;;10.99;58.37
80693;BME280;70055;39.436;-77.514;2024-03-06T02:10:12;99588.58;;;9.60;62.06
80693;BME280;70055;39.436;-77.514;2024-03-06T02:12:40;99582.62;;;10.52;58.29
80693;BME280;70055;39.436;-77.514;2024-03-06T02:15:14;99579.45;;;11.50;56.57
80693;BME280;70055;39.436;-77.514;2024-03-06T02:17:42;99584.96;;;9.53;60.85
80693;BME280;70055;39.436;-77.514;2024-03-06T02:20:12;99589.97;;;10.89;59.55
80693;BME280;70055;39.436;-77.514;2024-03-06T02:22:45;99597.13;;;11.78;56.10
80693;BME280;70055;39.436;-77.514;2024-03-06T02:25:13;99597.14;;;11.11;56.69
80693;BME280;70055;39.436;-77.514;2024-03-06T02:27:42;99604.93;;;11.61;55.79
80693;BME280;70055;39.436;-77.514;2024-03-06T02:30:11;99604.36;;;12.10;53.98
80693;BME280;70055;39.436;-77.514;2024-03-06T02:32:42;99603.08;;;12.27;53.95
80693;BME280;70055;39.436;-77.514;2024-03-06T02:35:10;99602.76;;;12.55;52.98
80693;BME280;70055;39.436;-77.514;2024-03-06T02:37:38;99599.14;;;11.30;55.25
80693;BME280;70055;39.436;-77.514;2024-03-06T02:40:08;99603.14;;;11.54;55.98
80693;BME280;70055;39.436;-77.514;2024-03-06T02:42:36;99612.24;;;11.69;54.40
80693;BME280;70055;39.436;-77.514;2024-03-06T02:45:06;99620.25;;;12.26;53.16
80693;BME280;70055;39.436;-77.514;2024-03-06T02:47:34;99626.20;;;10.49;56.85
80693;BME280;70055;39.436;-77.514;2024-03-06T02:50:02;99622.59;;;11.15;55.09
80693;BME280;70055;39.436;-77.514;2024-03-06T02:52:31;99623.24;;;12.84;51.82
80693;BME280;70055;39.436;-77.514;2024-03-06T02:55:00;99619.94;;;11.75;53.83
80693;BME280;70055;39.436;-77.514;2024-03-06T02:57:29;99625.15;;;11.84;53.33
80693;BME280;70055;39.436;-77.514;2024-03-06T02:59:58;99623.59;;;12.13;52.97
80693;BME280;70055;39.436;-77.514;2024-03-06T03:02:27;99621.43;;;12.35;52.71
80693;BME280;70055;39.436;-77.514;2024-03-06T03:04:55;99622.67;;;11.65;53.47
80693;BME280;70055;39.436;-77.514;2024-03-06T03:07:23;99618.62;;;11.96;53.56
80693;BME280;70055;39.436;-77.514;2024-03-06T03:09:52;99614.73;;;12.02;53.30
80693;BME280;70055;39.436;-77.514;2024-03-06T03:12:20;99619.42;;;11.43;54.32
80693;BME280;70055;39.436;-77.514;2024-03-06T03:14:48;99626.21;;;11.10;55.18
80693;BME280;70055;39.436;-77.514;2024-03-06T03:17:17;99618.47;;;11.59;53.32
80693;BME280;70055;39.436;-77.514;2024-03-06T03:19:45;99616.72;;;11.84;52.41
80693;BME280;70055;39.436;-77.514;2024-03-06T03:22:15;99617.71;;;12.29;52.90
80693;BME280;70055;39.436;-77.514;2024-03-06T03:24:42;99616.35;;;12.06;52.60
80693;BME280;70055;39.436;-77.514;2024-03-06T03:27:11;99618.05;;;12.32;52.37
80693;BME280;70055;39.436;-77.514;2024-03-06T03:29:39;99614.89;;;11.83;53.34
80693;BME280;70055;39.436;-77.514;2024-03-06T03:32:07;99614.06;;;11.71;53.17
80693;BME280;70055;39.436;-77.514;2024-03-06T03:34:34;99619.42;;;12.34;53.32
80693;BME280;70055;39.436;-77.514;2024-03-06T03:37:02;99617.71;;;11.38;54.46
80693;BME280;70055;39.436;-77.514;2024-03-06T03:39:33;99613.47;;;11.42;55.67
80693;BME280;70055;39.436;-77.514;2024-03-06T03:42:02;99608.27;;;12.05;54.39
80693;BME280;70055;39.436;-77.514;2024-03-06T03:44:32;99601.87;;;11.52;55.11
80693;BME280;70055;39.436;-77.514;2024-03-06T03:47:02;99599.16;;;11.77;54.56
80693;BME280;70055;39.436;-77.514;2024-03-06T03:49:30;99596.29;;;12.77;52.80
80693;BME280;70055;39.436;-77.514;2024-03-06T03:52:00;99591.47;;;12.05;54.75
80693;BME280;70055;39.436;-77.514;2024-03-06T03:54:32;99587.72;;;11.98;54.36
80693;BME280;70055;39.436;-77.514;2024-03-06T03:57:01;99582.79;;;12.18;53.94
80693;BME280;70055;39.436;-77.514;2024-03-06T03:59:31;99581.94;;;12.57;53.32
80693;BME280;70055;39.436;-77.514;2024-03-06T04:01:59;99582.64;;;12.54;53.07
80693;BME280;70055;39.436;-77.514;2024-03-06T04:04:27;99576.54;;;12.17;53.83
80693;BME280;70055;39.436;-77.514;2024-03-06T04:06:55;99567.88;;;12.96;52.59
80693;BME280;70055;39.436;-77.514;2024-03-06T04:09:24;99566.37;;;12.16;53.68
80693;BME280;70055;39.436;-77.514;2024-03-06T04:11:52;99560.95;;;12.02;54.58
80693;BME280;70055;39.436;-77.514;2024-03-06T04:14:20;99563.04;;;12.32;54.18
80693;BME280;70055;39.436;-77.514;2024-03-06T04:16:48;99565.55;;;12.52;53.53
80693;BME280;70055;39.436;-77.514;2024-03-06T04:19:17;99561.97;;;12.50;53.58
80693;BME280;70055;39.436;-77.514;2024-03-06T04:21:44;99560.30;;;11.90;54.82
80693;BME280;70055;39.436;-77.514;2024-03-06T04:24:13;99554.52;;;11.63;55.21
80693;BME280;70055;39.436;-77.514;2024-03-06T04:26:41;99554.60;;;12.52;53.05
80693;BME280;70055;39.436;-77.514;2024-03-06T04:29:10;99553.18;;;12.17;53.23
80693;BME280;70055;39.436;-77.514;2024-03-06T04:31:39;99549.17;;;12.29;53.01
80693;BME280;70055;39.436;-77.514;2024-03-06T04:34:08;99546.98;;;11.59;55.00
80693;BME280;70055;39.436;-77.514;2024-03-06T04:36:36;99545.35;;;10.75;57.02
80693;BME280;70055;39.436;-77.514;2024-03-06T04:39:08;99541.67;;;11.60;55.17
80693;BME280;70055;39.436;-77.514;2024-03-06T04:41:38;99539.35;;;11.22;56.67
80693;BME280;70055;39.436;-77.514;2024-03-06T04:44:09;99537.25;;;11.70;56.05
80693;BME280;70055;39.436;-77.514;2024-03-06T04:46:37;99539.99;;;12.15;54.25
80693;BME280;70055;39.436;-77.514;2024-03-06T04:49:07;99539.14;;;12.05;53.96
80693;BME280;70055;39.436;-77.514;2024-03-06T04:51:35;99540.44;;;11.58;55.05
80693;BME280;70055;39.436;-77.514;2024-03-06T04:54:03;99537.76;;;12.16;54.74
80693;BME280;70055;39.436;-77.514;2024-03-06T04:56:31;99530.48;;;12.06;54.59
80693;BME280;70055;39.436;-77.514;2024-03-06T04:59:00;99531.36;;;11.08;56.67
80693;BME280;70055;39.436;-77.514;2024-03-06T05:01:28;99531.63;;;11.43;55.85
80693;BME280;70055;39.436;-77.514;2024-03-06T05:03:56;99527.87;;;11.88;55.59
80693;BME280;70055;39.436;-77.514;2024-03-06T05:06:24;99522.43;;;11.30;55.81
80693;BME280;70055;39.436;-77.514;2024-03-06T05:08:55;99519.46;;;11.36;56.90
80693;BME280;70055;39.436;-77.514;2024-03-06T05:11:25;99516.34;;;11.28;57.27
80693;BME280;70055;39.436;-77.514;2024-03-06T05:13:53;99511.66;;;10.51;59.09
80693;BME280;70055;39.436;-77.514;2024-03-06T05:16:21;99507.94;;;10.88;58.27
80693;BME280;70055;39.436;-77.514;2024-03-06T05:18:49;99511.77;;;11.26;57.35
80693;BME280;70055;39.436;-77.514;2024-03-06T05:21:19;99507.20;;;11.48;56.28
80693;BME280;70055;39.436;-77.514;2024-03-06T05:23:48;99508.63;;;11.47;56.77
80693;BME280;70055;39.436;-77.514;2024-03-06T05:26:16;99501.69;;;12.06;55.28
80693;BME280;70055;39.436;-77.514;2024-03-06T05:28:44;99499.78;;;11.55;55.57
80693;BME280;70055;39.436;-77.514;2024-03-06T05:31:20;99494.65;;;11.70;54.50
80693;BME280;70055;39.436;-77.514;2024-03-06T05:33:50;99491.80;;;12.27;54.68
80693;BME280;70055;39.436;-77.514;2024-03-06T05:36:19;99495.99;;;12.31;54.38
80693;BME280;70055;39.436;-77.514;2024-03-06T05:38:48;99499.11;;;12.19;54.76
80693;BME280;70055;39.436;-77.514;2024-03-06T05:41:16;99495.51;;;11.98;54.36
80693;BME280;70055;39.436;-77.514;2024-03-06T05:43:44;99496.54;;;12.28;54.17
80693;BME280;70055;39.436;-77.514;2024-03-06T05:46:11;99496.41;;;11.27;55.47
80693;BME280;70055;39.436;-77.514;2024-03-06T05:48:42;99502.27;;;11.76;55.31
80693;BME280;70055;39.436;-77.514;2024-03-06T05:51:10;99503.90;;;11.51;55.83
80693;BME280;70055;39.436;-77.514;2024-03-06T05:53:39;99497.62;;;11.98;55.39
80693;BME280;70055;39.436;-77.514;2024-03-06T05:56:07;99493.81;;;10.99;57.01
80693;BME280;70055;39.436;-77.514;2024-03-06T05:58:35;99487.91;;;11.20;57.31
80693;BME280;70055;39.436;-77.514;2024-03-06T06:01:04;99484.46;;;10.39;59.15
80693;BME280;70055;39.436;-77.514;2024-03-06T06:03:34;99483.19;;;10.27;59.72
80693;BME280;70055;39.436;-77.514;2024-03-06T06:06:04;99484.71;;;9.95;60.56
80693;BME280;70055;39.436;-77.514;2024-03-06T06:08:32;99476.68;;;11.52;57.27
80693;BME280;70055;39.436;-77.514;2024-03-06T06:11:00;99478.50;;;10.14;60.62
80693;BME280;70055;39.436;-77.514;2024-03-06T06:13:29;99472.10;;;10.49;59.47
80693;BME280;70055;39.436;-77.514;2024-03-06T06:15:58;99473.01;;;11.87;56.83
80693;BME280;70055;39.436;-77.514;2024-03-06T06:18:27;99474.81;;;10.01;60.98
80693;BME280;70055;39.436;-77.514;2024-03-06T06:20:56;99472.54;;;10.98;58.49
80693;BME280;70055;39.436;-77.514;2024-03-06T06:23:24;99471.19;;;11.14;57.94
80693;BME280;70055;39.436;-77.514;2024-03-06T06:25:54;99467.20;;;11.86;56.46
80693;BME280;70055;39.436;-77.514;2024-03-06T06:28:22;99465.68;;;11.67;56.51
80693;BME280;70055;39.436;-77.514;2024-03-06T06:30:51;99460.97;;;12.09;55.64
80693;BME280;70055;39.436;-77.514;2024-03-06T06:33:19;99463.62;;;11.91;55.78
80693;BME280;70055;39.436;-77.514;2024-03-06T06:35:47;99461.15;;;11.70;56.03
80693;BME280;70055;39.436;-77.514;2024-03-06T06:38:15;99462.31;;;11.36;56.96
80693;BME280;70055;39.436;-77.514;2024-03-06T06:40:43;99458.57;;;11.30;56.60
80693;BME280;70055;39.436;-77.514;2024-03-06T06:43:11;99456.02;;;11.67;57.24
80693;BME280;70055;39.436;-77.514;2024-03-06T06:45:41;99450.33;;;12.26;55.91
80693;BME280;70055;39.436;-77.514;2024-03-06T06:48:09;99455.83;;;11.39;56.32
80693;BME280;70055;39.436;-77.514;2024-03-06T06:50:38;99450.87;;;11.93;56.05
80693;BME280;70055;39.436;-77.514;2024-03-06T06:53:05;99446.59;;;12.02;55.85
80693;BME280;70055;39.436;-77.514;2024-03-06T06:55:34;99444.63;;;11.77;55.45
80693;BME280;70055;39.436;-77.514;2024-03-06T06:58:02;99448.31;;;12.04;55.31
80693;BME280;70055;39.436;-77.514;2024-03-06T07:00:30;99447.62;;;12.28;54.93
80693;BME280;70055;39.436;-77.514;2024-03-06T07:02:58;99446.98;;;10.99;57.67
80693;BME280;70055;39.436;-77.514;2024-03-06T07:05:26;99440.98;;;12.69;54.21
80693;BME280;70055;39.436;-77.514;2024-03-06T07:07:54;99433.75;;;12.77;53.99
80693;BME280;70055;39.436;-77.514;2024-03-06T07:10:22;99431.43;;;12.20;54.50
80693;BME280;70055;39.436;-77.514;2024-03-06T07:12:50;99434.70;;;12.81;54.01
80693;BME280;70055;39.436;-77.514;2024-03-06T07:15:18;99432.30;;;12.47;53.98
80693;BME280;70055;39.436;-77.514;2024-03-06T07:17:46;99428.93;;;12.85;53.65
80693;BME280;70055;39.436;-77.514;2024-03-06T07:20:14;99425.21;;;13.56;52.67
80693;BME280;70055;39.436;-77.514;2024-03-06T07:22:41;99427.74;;;13.09;52.79
80693;BME280;70055;39.436;-77.514;2024-03-06T07:25:09;99430.04;;;13.80;51.46
80693;BME280;70055;39.436;-77.514;2024-03-06T07:27:37;99429.17;;;12.94;52.55
80693;BME280;70055;39.436;-77.514;2024-03-06T07:30:09;99427.17;;;13.11;52.98
80693;BME280;70055;39.436;-77.514;2024-03-06T07:32:37;99418.51;;;12.76;52.92
80693;BME280;70055;39.436;-77.514;2024-03-06T07:35:07;99411.00;;;12.98;52.64
80693;BME280;70055;39.436;-77.514;2024-03-06T07:37:35;99407.95;;;12.73;53.21
80693;BME280;70055;39.436;-77.514;2024-03-06T07:40:04;99398.52;;;12.57;54.15
80693;BME280;70055;39.436;-77.514;2024-03-06T07:42:32;99385.79;;;11.98;54.63
80693;BME280;70055;39.436;-77.514;2024-03-06T07:45:01;99376.21;;;12.61;53.71
80693;BME280;70055;39.436;-77.514;2024-03-06T07:47:29;99369.34;;;11.07;57.44
80693;BME280;70055;39.436;-77.514;2024-03-06T07:49:57;99363.75;;;11.04;57.84
80693;BME280;70055;39.436;-77.514;2024-03-06T07:52:25;99360.21;;;11.86;56.33
80693;BME280;70055;39.436;-77.514;2024-03-06T07:54:54;99365.09;;;12.52;55.04
80693;BME280;70055;39.436;-77.514;2024-03-06T07:57:23;99363.64;;;12.78;54.48
80693;BME280;70055;39.436;-77.514;2024-03-06T07:59:51;99357.74;;;12.66;53.81
80693;BME280;70055;39.436;-77.514;2024-03-06T08:02:20;99345.49;;;10.78;58.00
80693;BME280;70055;39.436;-77.514;2024-03-06T08:04:49;99345.96;;;8.18;67.23
80693;BME280;70055;39.436;-77.514;2024-03-06T08:07:18;99355.64;;;11.00;60.18
80693;BME280;70055;39.436;-77.514;2024-03-06T08:09:47;99396.08;;;9.98;62.53
80693;BME280;70055;39.436;-77.514;2024-03-06T08:12:15;99391.15;;;11.18;59.35
80693;BME280;70055;39.436;-77.514;2024-03-06T08:14:43;99373.77;;;11.56;57.30
80693;BME280;70055;39.436;-77.514;2024-03-06T08:17:11;99363.85;;;11.87;56.62
80693;BME280;70055;39.436;-77.514;2024-03-06T08:19:39;99368.85;;;11.94;56.67
80693;BME280;70055;39.436;-77.514;2024-03-06T08:22:07;99357.53;;;11.34;57.41
80693;BME280;70055;39.436;-77.514;2024-03-06T08:24:35;99339.87;;;12.23;55.68
80693;BME280;70055;39.436;-77.514;2024-03-06T08:27:03;99334.52;;;11.23;57.72
80693;BME280;70055;39.436;-77.514;2024-03-06T08:29:32;99326.24;;;11.61;56.86
80693;BME280;70055;39.436;-77.514;2024-03-06T08:32:00;99340.81;;;13.06;54.52
80693;BME280;70055;39.436;-77.514;2024-03-06T08:34:27;99339.56;;;11.67;56.95
80693;BME280;70055;39.436;-77.514;2024-03-06T08:36:57;99345.20;;;12.42;55.19
80693;BME280;70055;39.436;-77.514;2024-03-06T08:39:24;99355.55;;;10.66;58.83
80693;BME280;70055;39.436;-77.514;2024-03-06T08:41:52;99346.21;;;12.24;56.07
80693;BME280;70055;39.436;-77.514;2024-03-06T08:44:21;99330.89;;;11.91;55.99
80693;BME280;70055;39.436;-77.514;2024-03-06T08:46:49;99318.03;;;11.21;57.34
80693;BME280;70055;39.436;-77.514;2024-03-06T08:49:16;99319.71;;;10.23;59.70
80693;BME280;70055;39.436;-77.514;2024-03-06T08:51:47;99337.37;;;11.30;57.52
80693;BME280;70055;39.436;-77.514;2024-03-06T08:54:16;99344.93;;;11.30;57.55
80693;BME280;70055;39.436;-77.514;2024-03-06T08:56:44;99346.20;;;12.45;55.49
80693;BME280;70055;39.436;-77.514;2024-03-06T08:59:12;99357.76;;;12.76;54.75
80693;BME280;70055;39.436;-77.514;2024-03-06T09:01:40;99345.79;;;11.55;56.57
80693;BME280;70055;39.436;-77.514;2024-03-06T09:04:07;99339.58;;;11.34;57.68
80693;BME280;70055;39.436;-77.514;2024-03-06T09:06:36;99341.65;;;11.47;57.46
80693;BME280;70055;39.436;-77.514;2024-03-06T09:09:03;99337.67;;;11.92;56.12
80693;BME280;70055;39.436;-77.514;2024-03-06T09:11:32;99337.08;;;12.46;54.94
80693;BME280;70055;39.436;-77.514;2024-03-06T09:14:01;99328.56;;;11.49;56.64
80693;BME280;70055;39.436;-77.514;2024-03-06T09:16:31;99329.90;;;10.68;59.72
80693;BME280;70055;39.436;-77.514;2024-03-06T09:18:59;99336.96;;;9.42;63.22
80693;BME280;70055;39.436;-77.514;2024-03-06T09:21:28;99347.61;;;11.00;59.84
80693;BME280;70055;39.436;-77.514;2024-03-06T09:23:56;99344.43;;;11.24;58.91
80693;BME280;70055;39.436;-77.514;2024-03-06T09:26:24;99348.91;;;10.58;60.17
80693;BME280;70055;39.436;-77.514;2024-03-06T09:28:52;99357.81;;;11.23;58.76
80693;BME280;70055;39.436;-77.514;2024-03-06T09:31:20;99357.17;;;11.85;57.34
80693;BME280;70055;39.436;-77.514;2024-03-06T09:33:48;99360.18;;;10.50;61.30
80693;BME280;70055;39.436;-77.514;2024-03-06T09:36:16;99350.61;;;9.67;62.61
80693;BME280;70055;39.436;-77.514;2024-03-06T09:38:44;99347.52;;;10.73;61.00
80693;BME280;70055;39.436;-77.514;2024-03-06T09:41:12;99347.73;;;10.52;61.49
80693;BME280;70055;39.436;-77.514;2024-03-06T09:43:40;99361.16;;;10.96;60.00
80693;BME280;70055;39.436;-77.514;2024-03-06T09:46:08;99377.83;;;9.67;63.75
80693;BME280;70055;39.436;-77.514;2024-03-06T09:48:40;99378.08;;;11.31;60.15
80693;BME280;70055;39.436;-77.514;2024-03-06T09:51:13;99375.58;;;10.15;62.20
80693;BME280;70055;39.436;-77.514;2024-03-06T09:53:43;99371.14;;;10.00;62.58
80693;BME280;70055;39.436;-77.514;2024-03-06T09:56:11;99366.85;;;10.49;61.16
80693;BME280;70055;39.436;-77.514;2024-03-06T09:58:39;99365.07;;;10.21;62.21
80693;BME280;70055;39.436;-77.514;2024-03-06T10:01:07;99368.01;;;10.62;61.14
80693;BME280;70055;39.436;-77.514;2024-03-06T10:03:39;99368.25;;;9.52;63.88
80693;BME280;70055;39.436;-77.514;2024-03-06T10:06:07;99363.97;;;9.03;66.00
80693;BME280;70055;39.436;-77.514;2024-03-06T10:08:35;99357.64;;;10.16;63.90
80693;BME280;70055;39.436;-77.514;2024-03-06T10:11:04;99365.45;;;10.56;62.28
80693;BME280;70055;39.436;-77.514;2024-03-06T10:13:32;99372.22;;;10.02;62.83
80693;BME280;70055;39.436;-77.514;2024-03-06T10:16:03;99369.60;;;10.71;61.37
80693;BME280;70055;39.436;-77.514;2024-03-06T10:18:32;99384.71;;;10.93;60.61
80693;BME280;70055;39.436;-77.514;2024-03-06T10:21:00;99385.12;;;11.08;59.92
80693;BME280;70055;39.436;-77.514;2024-03-06T10:23:30;99378.18;;;9.84;62.85
80693;BME280;70055;39.436;-77.514;2024-03-06T10:25:58;99378.32;;;9.95;63.17
80693;BME280;70055;39.436;-77.514;2024-03-06T10:28:26;99383.00;;;9.16;65.99
80693;BME280;70055;39.436;-77.514;2024-03-06T10:31:03;99394.28;;;9.39;65.18
80693;BME280;70055;39.436;-77.514;2024-03-06T10:33:32;99387.91;;;9.14;66.21
80693;BME280;70055;39.436;-77.514;2024-03-06T10:36:00;99376.83;;;9.25;66.04
80693;BME280;70055;39.436;-77.514;2024-03-06T10:38:31;99381.62;;;8.44;68.24
80693;BME280;70055;39.436;-77.514;2024-03-06T10:41:03;99373.11;;;8.19;69.69
80693;BME280;70055;39.436;-77.514;2024-03-06T10:43:32;99357.73;;;9.16;66.55
80693;BME280;70055;39.436;-77.514;2024-03-06T10:46:01;99357.89;;;9.01;67.07
80693;BME280;70055;39.436;-77.514;2024-03-06T10:48:34;99368.41;;;8.81;68.92
80693;BME280;70055;39.436;-77.514;2024-03-06T10:51:04;99370.14;;;7.88;71.25
80693;BME280;70055;39.436;-77.514;2024-03-06T10:53:34;99366.49;;;8.41;69.25
80693;BME280;70055;39.436;-77.514;2024-03-06T10:56:11;99367.37;;;9.27;67.82
80693;BME280;70055;39.436;-77.514;2024-03-06T10:58:42;99370.20;;;9.13;66.68
80693;BME280;70055;39.436;-77.514;2024-03-06T11:01:12;99373.58;;;9.50;65.94
80693;BME280;70055;39.436;-77.514;2024-03-06T11:03:41;99373.90;;;9.94;64.56
80693;BME280;70055;39.436;-77.514;2024-03-06T11:06:10;99373.03;;;9.47;64.83
80693;BME280;70055;39.436;-77.514;2024-03-06T11:08:38;99369.04;;;9.84;64.64
80693;BME280;70055;39.436;-77.514;2024-03-06T11:11:23;99367.64;;;9.36;65.74
80693;BME280;70055;39.436;-77.514;2024-03-06T11:13:55;99364.06;;;10.48;63.20
80693;BME280;70055;39.436;-77.514;2024-03-06T11:16:28;99362.92;;;10.11;63.43
80693;BME280;70055;39.436;-77.514;2024-03-06T11:19:10;99354.02;;;9.94;64.58
80693;BME280;70055;39.436;-77.514;2024-03-06T11:21:46;99358.79;;;9.33;65.26
80693;BME280;70055;39.436;-77.514;2024-03-06T11:24:18;99376.04;;;10.72;62.30
80693;BME280;70055;39.436;-77.514;2024-03-06T11:26:48;99389.73;;;10.46;63.10
80693;BME280;70055;39.436;-77.514;2024-03-06T11:29:19;99389.24;;;10.72;62.06
80693;BME280;70055;39.436;-77.514;2024-03-06T11:32:05;99378.68;;;9.40;64.46
80693;BME280;70055;39.436;-77.514;2024-03-06T11:34:35;99372.97;;;9.30;66.47
80693;BME280;70055;39.436;-77.514;2024-03-06T11:37:05;99375.54;;;8.78;68.24
80693;BME280;70055;39.436;-77.514;2024-03-06T11:39:35;99372.04;;;8.85;67.33
80693;BME280;70055;39.436;-77.514;2024-03-06T11:42:04;99376.19;;;8.45;68.91
80693;BME280;70055;39.436;-77.514;2024-03-06T11:44:32;99376.64;;;8.83;69.17
80693;BME280;70055;39.436;-77.514;2024-03-06T11:47:01;99380.00;;;9.06;68.44
80693;BME280;70055;39.436;-77.514;2024-03-06T11:49:30;99375.75;;;9.32;65.90
80693;BME280;70055;39.436;-77.514;2024-03-06T11:52:01;99373.99;;;10.34;63.95
80693;BME280;70055;39.436;-77.514;2024-03-06T11:54:30;99379.77;;;10.53;63.69
80693;BME280;70055;39.436;-77.514;2024-03-06T11:57:00;99395.30;;;8.61;68.08
80693;BME280;70055;39.436;-77.514;2024-03-06T11:59:30;99395.72;;;9.05;67.81
80693;BME280;70055;39.436;-77.514;2024-03-06T12:02:01;99390.28;;;8.97;68.19
80693;BME280;70055;39.436;-77.514;2024-03-06T12:04:30;99397.05;;;8.25;69.82
80693;BME280;70055;39.436;-77.514;2024-03-06T12:06:58;99399.06;;;8.68;69.41
80693;BME280;70055;39.436;-77.514;2024-03-06T12:09:27;99389.62;;;8.56;68.88
80693;BME280;70055;39.436;-77.514;2024-03-06T12:11:57;99381.97;;;8.13;70.06
80693;BME280;70055;39.436;-77.514;2024-03-06T12:14:24;99376.88;;;8.96;66.98
80693;BME280;70055;39.436;-77.514;2024-03-06T12:16:57;99379.24;;;9.10;67.04
80693;BME280;70055;39.436;-77.514;2024-03-06T12:19:26;99381.29;;;8.77;66.97
80693;BME280;70055;39.436;-77.514;2024-03-06T12:21:54;99381.25;;;8.46;69.21
80693;BME280;70055;39.436;-77.514;2024-03-06T12:24:22;99381.65;;;8.21;69.70
80693;BME280;70055;39.436;-77.514;2024-03-06T12:27:00;99380.50;;;8.97;68.12
80693;BME280;70055;39.436;-77.514;2024-03-06T12:29:31;99373.28;;;9.47;66.20
80693;BME280;70055;39.436;-77.514;2024-03-06T12:32:00;99363.04;;;9.96;64.64
80693;BME280;70055;39.436;-77.514;2024-03-06T12:34:28;99359.71;;;9.89;65.31
80693;BME280;70055;39.436;-77.514;2024-03-06T12:36:56;99359.73;;;11.58;59.84
80693;BME280;70055;39.436;-77.514;2024-03-06T12:39:36;99385.78;;;11.32;59.97
80693;BME280;70055;39.436;-77.514;2024-03-06T12:42:07;99393.31;;;10.57;62.50
80693;BME280;70055;39.436;-77.514;2024-03-06T12:44:37;99393.04;;;9.92;63.84
80693;BME280;70055;39.436;-77.514;2024-03-06T12:47:06;99393.71;;;11.26;59.85
80693;BME280;70055;39.436;-77.514;2024-03-06T12:49:34;99391.14;;;11.86;59.90
80693;BME280;70055;39.436;-77.514;2024-03-06T12:52:02;99383.85;;;11.56;60.41